createdAt,value
2023-03-01T00:04:50.162Z,1020.5
2023-03-01T00:10:56.766Z,1020.5
2023-03-01T00:17:03.177Z,1020.5
2023-03-01T00:23:09.111Z,1020.4
2023-03-01T00:29:14.811Z,1020.4
2023-03-01T00:35:20.473Z,1020.4
2023-03-01T00:41:26.238Z,1020.3
2023-03-01T00:47:32.637Z,1020.3
2023-03-01T00:53:39.025Z,1020.2
2023-03-01T00:59:45.267Z,1020.2
2023-03-01T01:05:51.389Z,1020.1
2023-03-01T01:11:57.582Z,1020
2023-03-01T01:18:03.222Z,1019.9
2023-03-01T01:24:09.254Z,1019.8
2023-03-01T01:30:15.182Z,1019.8
2023-03-01T01:36:21.299Z,1019.8
2023-03-01T01:42:27.693Z,1019.6
2023-03-01T01:48:33.747Z,1019.6
2023-03-01T01:54:39.100Z,1019.5
2023-03-01T02:00:45.216Z,1019.5
2023-03-01T02:06:51.265Z,1019.4
2023-03-01T02:12:57.052Z,1019.4
2023-03-01T02:19:02.897Z,1019.4
2023-03-01T02:25:08.411Z,1019.3
2023-03-01T02:31:14.008Z,1019.3
2023-03-01T02:37:19.310Z,1019.3
2023-03-01T02:43:24.482Z,1019.3
2023-03-01T02:49:30.035Z,1019.2
2023-03-01T02:55:35.215Z,1019.3
2023-03-01T03:01:40.537Z,1019.2
2023-03-01T03:07:46.313Z,1019.2
2023-03-01T03:13:52.097Z,1019.3
2023-03-01T03:19:58.486Z,1019.3
2023-03-01T03:26:03.855Z,1019.2
2023-03-01T03:32:09.478Z,1019.2
2023-03-01T03:38:15.194Z,1019.1
2023-03-01T03:44:20.953Z,1019.1
2023-03-01T03:50:26.385Z,1019.1
2023-03-01T03:56:32.925Z,1019
2023-03-01T04:02:39.173Z,1019
2023-03-01T04:08:44.904Z,1018.9
2023-03-01T04:14:50.474Z,1018.9
2023-03-01T04:20:55.845Z,1018.9
2023-03-01T04:27:01.896Z,1018.8
2023-03-01T04:33:06.802Z,1018.8
2023-03-01T04:39:13.571Z,1018.8
2023-03-01T04:45:18.941Z,1018.8
2023-03-01T04:51:24.375Z,1018.7
2023-03-01T04:57:29.753Z,1018.7
2023-03-01T05:03:35.299Z,1018.7
2023-03-01T05:09:41.104Z,1018.7
2023-03-01T05:15:46.664Z,1018.7
2023-03-01T05:21:52.027Z,1018.6
2023-03-01T05:27:57.217Z,1018.6
2023-03-01T05:34:02.697Z,1018.6
2023-03-01T05:40:08.094Z,1018.6
2023-03-01T05:46:13.808Z,1018.5
2023-03-01T05:52:19.399Z,1018.5
2023-03-01T05:58:25.604Z,1018.5
2023-03-01T06:04:31.421Z,1018.5
2023-03-01T06:10:37.590Z,1018.6
2023-03-01T06:16:43.386Z,1018.7
2023-03-01T06:22:48.753Z,1018.7
2023-03-01T06:28:54.264Z,1018.7
2023-03-01T06:34:59.843Z,1018.7
2023-03-01T06:41:05.905Z,1018.7
2023-03-01T06:47:11.442Z,1018.7
2023-03-01T06:53:17.605Z,1018.7
2023-03-01T06:59:24.016Z,1018.7
2023-03-01T07:05:30.230Z,1018.7
2023-03-01T07:11:36.359Z,1018.7
2023-03-01T07:17:42.129Z,1018.7
2023-03-01T07:23:47.732Z,1018.7
2023-03-01T07:29:53.888Z,1018.7
2023-03-01T07:35:58.562Z,1018.7
2023-03-01T07:42:04.853Z,1018.6
2023-03-01T07:48:10.589Z,1018.5
2023-03-01T07:54:16.374Z,1018.5
2023-03-01T08:00:22.554Z,1018.5
2023-03-01T08:06:28.371Z,1018.5
2023-03-01T08:12:34.304Z,1018.5
2023-03-01T08:18:39.898Z,1018.5
2023-03-01T08:24:45.506Z,1018.4
2023-03-01T08:30:50.270Z,1018.4
2023-03-01T08:36:55.999Z,1018.4
2023-03-01T08:43:02.380Z,1018.3
2023-03-01T08:49:08.302Z,1018.2
2023-03-01T08:55:13.994Z,1018.2
2023-03-01T09:01:20.784Z,1018.2
2023-03-01T09:07:26.786Z,1018.2
2023-03-01T09:13:32.905Z,1018.2
2023-03-01T09:19:39.011Z,1018.1
2023-03-01T09:25:44.865Z,1018.1
2023-03-01T09:31:50.921Z,1018.1
2023-03-01T09:37:56.621Z,1018
2023-03-01T09:44:02.617Z,1018
2023-03-01T09:50:08.632Z,1018
2023-03-01T09:56:14.659Z,1018
2023-03-01T10:02:20.353Z,1018
2023-03-01T10:08:26.563Z,1018
2023-03-01T10:14:32.735Z,1017.9
2023-03-01T10:20:38.943Z,1017.9
2023-03-01T10:26:44.917Z,1017.9
2023-03-01T10:32:50.880Z,1017.8
2023-03-01T10:38:56.687Z,1017.9
2023-03-01T10:45:02.137Z,1017.8
2023-03-01T10:51:08.061Z,1017.7
2023-03-01T10:57:13.986Z,1017.6
2023-03-01T11:03:21.819Z,1017.5
2023-03-01T11:09:29.270Z,1017.3
2023-03-01T11:15:35.415Z,1017.1
2023-03-01T11:21:40.992Z,1017.1
2023-03-01T11:27:46.955Z,1017
2023-03-01T11:33:53.550Z,1016.9
2023-03-01T11:39:59.150Z,1016.8
2023-03-01T11:46:04.910Z,1016.7
2023-03-01T11:52:10.775Z,1016.7
2023-03-01T11:58:16.652Z,1016.7
2023-03-01T12:04:22.912Z,1016.7
2023-03-01T12:10:29.119Z,1016.6
2023-03-01T12:16:41.208Z,1016.4
2023-03-01T12:22:47.141Z,1016.4
2023-03-01T12:28:52.932Z,1016.4
2023-03-01T12:34:59.086Z,1016.3
2023-03-01T12:41:05.088Z,1016.2
2023-03-01T12:47:11.456Z,1016.2
2023-03-01T12:53:17.459Z,1016.2
2023-03-01T12:59:23.454Z,1016.2
2023-03-01T13:05:29.203Z,1016.1
2023-03-01T13:11:35.326Z,1016
2023-03-01T13:17:40.763Z,1016.1
2023-03-01T13:23:47.368Z,1016.2
2023-03-01T13:29:53.555Z,1016.1
2023-03-01T13:35:59.571Z,1016
2023-03-01T13:42:05.512Z,1015.9
2023-03-01T13:48:11.972Z,1016
2023-03-01T13:54:17.687Z,1015.9
2023-03-01T14:00:23.445Z,1015.7
2023-03-01T14:06:29.316Z,1015.8
2023-03-01T14:12:35.833Z,1015.8
2023-03-01T14:18:42.036Z,1015.7
2023-03-01T14:24:48.403Z,1015.6
2023-03-01T14:30:54.248Z,1015.4
2023-03-01T14:37:00.217Z,1015.4
2023-03-01T14:43:06.225Z,1015.4
2023-03-01T14:49:12.113Z,1015.4
2023-03-01T14:55:17.911Z,1015.4
2023-03-01T15:01:24.183Z,1015.4
2023-03-01T15:07:30.554Z,1015.4
2023-03-01T15:13:36.467Z,1015.3
2023-03-01T15:19:42.229Z,1015.3
2023-03-01T15:25:48.743Z,1015.3
2023-03-01T15:31:54.634Z,1015.3
2023-03-01T15:38:00.797Z,1015.3
2023-03-01T15:44:06.990Z,1015.2
2023-03-01T15:50:13.410Z,1015.3
2023-03-01T15:56:18.952Z,1015.3
2023-03-01T16:02:24.789Z,1015.2
2023-03-01T16:08:31.124Z,1015.2
2023-03-01T16:14:36.699Z,1015.2
2023-03-01T16:20:42.734Z,1015.3
2023-03-01T16:26:51.313Z,1015.3
2023-03-01T16:32:57.372Z,1015.2
2023-03-01T16:39:03.560Z,1015.2
2023-03-01T16:45:24.559Z,1015.2
2023-03-01T16:51:33.566Z,1015.3
2023-03-01T16:57:39.667Z,1015.3
2023-03-01T17:03:45.842Z,1015.4
2023-03-01T17:09:51.297Z,1015.6
2023-03-01T17:15:57.403Z,1015.5
2023-03-01T17:22:03.592Z,1015.6
2023-03-01T17:28:09.178Z,1015.6
2023-03-01T17:34:15.381Z,1015.6
2023-03-01T17:40:21.335Z,1015.6
2023-03-01T17:46:27.302Z,1015.6
2023-03-01T17:52:33.370Z,1015.7
2023-03-01T17:58:39.665Z,1015.7
2023-03-01T18:04:45.869Z,1015.8
2023-03-01T18:10:52.055Z,1015.9
2023-03-01T18:16:57.689Z,1015.8
2023-03-01T18:23:04.022Z,1015.8
2023-03-01T18:29:10.197Z,1015.9
2023-03-01T18:35:16.800Z,1015.8
2023-03-01T18:41:22.627Z,1015.7
2023-03-01T18:47:28.752Z,1015.6
2023-03-01T18:53:34.423Z,1015.7
2023-03-01T18:59:40.105Z,1015.7
2023-03-01T19:05:46.066Z,1015.7
2023-03-01T19:11:52.260Z,1015.7
2023-03-01T19:17:57.853Z,1015.6
2023-03-01T19:24:03.411Z,1015.6
2023-03-01T19:30:09.424Z,1015.7
2023-03-01T19:36:15.558Z,1015.7
2023-03-01T19:42:21.230Z,1015.6
2023-03-01T19:48:27.190Z,1015.6
2023-03-01T19:54:33.315Z,1015.6
2023-03-01T20:00:39.301Z,1015.6
2023-03-01T20:06:45.682Z,1015.5
2023-03-01T20:12:51.682Z,1015.5
2023-03-01T20:18:57.861Z,1015.5
2023-03-01T20:25:03.715Z,1015.4
2023-03-01T20:31:09.907Z,1015.4
2023-03-01T20:37:16.026Z,1015.4
2023-03-01T20:43:22.602Z,1015.3
2023-03-01T20:49:28.186Z,1015.3
2023-03-01T20:55:34.382Z,1015.3
2023-03-01T21:01:40.433Z,1015.3
2023-03-01T21:07:46.542Z,1015.4
2023-03-01T21:13:51.699Z,1015.3
2023-03-01T21:19:57.868Z,1015.3
2023-03-01T21:26:03.723Z,1015.2
2023-03-01T21:32:09.627Z,1015.2
2023-03-01T21:38:15.725Z,1015.2
2023-03-01T21:44:21.408Z,1015.1
2023-03-01T21:50:27.818Z,1015.1
2023-03-01T21:56:34.854Z,1015
2023-03-01T22:02:40.890Z,1014.9
2023-03-01T22:08:46.945Z,1015
2023-03-01T22:14:52.591Z,1015
2023-03-01T22:20:58.737Z,1014.9
2023-03-01T22:27:04.702Z,1014.8
2023-03-01T22:33:10.716Z,1014.9
2023-03-01T22:39:16.497Z,1014.8
2023-03-01T22:45:21.940Z,1014.7
2023-03-01T22:51:27.924Z,1014.7
2023-03-01T22:57:33.798Z,1014.7
2023-03-01T23:03:40.048Z,1014.6
2023-03-01T23:09:46.375Z,1014.6
2023-03-01T23:15:55.023Z,1014.7
2023-03-01T23:22:00.802Z,1014.6
2023-03-01T23:28:06.771Z,1014.6
2023-03-01T23:34:12.955Z,1014.6
2023-03-01T23:40:18.918Z,1014.6
2023-03-01T23:46:24.788Z,1014.6
2023-03-01T23:52:30.794Z,1014.6
2023-03-01T23:58:36.668Z,1014.4
